sensor_id;sensor_type;location;lat;lon;timestamp;temperature;humidity
49224;DHT22;35050;51.316;5.994;2023-05-10T00:00:12;14.60;99.90
49224;DHT22;35050;51.316;5.994;2023-05-10T00:02:37;14.60;99.90
49224;DHT22;35050;51.316;5.994;2023-05-10T00:05:04;14.70;99.90
49224;DHT22;35050;51.316;5.994;2023-05-10T00:07:30;14.70;99.90
49224;DHT22;35050;51.316;5.994;2023-05-10T00:09:56;14.60;99.90
49224;DHT22;35050;51.316;5.994;2023-05-10T00:12:22;14.50;99.90
49224;DHT22;35050;51.316;5.994;2023-05-10T00:14:47;14.60;99.90
49224;DHT22;35050;51.316;5.994;2023-05-10T00:17:13;14.70;99.90
49224;DHT22;35050;51.316;5.994;2023-05-10T00:19:39;14.60;99.90
49224;DHT22;35050;51.316;5.994;2023-05-10T00:22:05;14.50;99.90
49224;DHT22;35050;51.316;5.994;2023-05-10T00:24:30;14.50;99.90
49224;DHT22;35050;51.316;5.994;2023-05-10T00:26:56;14.60;99.90
49224;DHT22;35050;51.316;5.994;2023-05-10T00:29:21;14.70;99.90
49224;DHT22;35050;51.316;5.994;2023-05-10T00:31:47;14.60;99.90
49224;DHT22;35050;51.316;5.994;2023-05-10T00:34:13;14.60;99.90
49224;DHT22;35050;51.316;5.994;2023-05-10T00:36:38;14.70;99.90
49224;DHT22;35050;51.316;5.994;2023-05-10T00:39:04;14.60;99.90
49224;DHT22;35050;51.316;5.994;2023-05-10T00:41:30;14.70;99.90
49224;DHT22;35050;51.316;5.994;2023-05-10T00:43:58;14.70;99.90
49224;DHT22;35050;51.316;5.994;2023-05-10T00:46:24;14.70;99.90
49224;DHT22;35050;51.316;5.994;2023-05-10T00:48:50;14.60;99.90
49224;DHT22;35050;51.316;5.994;2023-05-10T00:51:16;14.60;99.90
49224;DHT22;35050;51.316;5.994;2023-05-10T00:53:43;14.70;99.90
49224;DHT22;35050;51.316;5.994;2023-05-10T00:56:10;14.60;99.90
49224;DHT22;35050;51.316;5.994;2023-05-10T00:58:36;14.60;99.90
49224;DHT22;35050;51.316;5.994;2023-05-10T01:01:01;14.70;99.90
49224;DHT22;35050;51.316;5.994;2023-05-10T01:03:27;14.60;99.90
49224;DHT22;35050;51.316;5.994;2023-05-10T01:05:53;14.70;99.90
49224;DHT22;35050;51.316;5.994;2023-05-10T01:08:19;14.70;99.90
49224;DHT22;35050;51.316;5.994;2023-05-10T01:10:45;14.70;99.90
49224;DHT22;35050;51.316;5.994;2023-05-10T01:13:12;14.70;99.90
49224;DHT22;35050;51.316;5.994;2023-05-10T01:15:39;14.60;99.90
49224;DHT22;35050;51.316;5.994;2023-05-10T01:18:05;14.60;99.90
49224;DHT22;35050;51.316;5.994;2023-05-10T01:20:40;14.70;99.90
49224;DHT22;35050;51.316;5.994;2023-05-10T01:26:48;14.60;99.90
49224;DHT22;35050;51.316;5.994;2023-05-10T01:32:11;14.50;99.90
49224;DHT22;35050;51.316;5.994;2023-05-10T01:37:21;14.50;99.90
49224;DHT22;35050;51.316;5.994;2023-05-10T01:39:59;14.50;99.90
49224;DHT22;35050;51.316;5.994;2023-05-10T01:42:29;14.50;99.90
49224;DHT22;35050;51.316;5.994;2023-05-10T01:45:07;14.50;99.90
49224;DHT22;35050;51.316;5.994;2023-05-10T01:47:38;14.50;99.90
49224;DHT22;35050;51.316;5.994;2023-05-10T01:50:15;14.60;99.90
49224;DHT22;35050;51.316;5.994;2023-05-10T01:52:43;14.40;99.90
49224;DHT22;35050;51.316;5.994;2023-05-10T01:55:16;14.50;99.90
49224;DHT22;35050;51.316;5.994;2023-05-10T01:57:43;14.40;99.90
49224;DHT22;35050;51.316;5.994;2023-05-10T02:00:10;14.50;99.90
49224;DHT22;35050;51.316;5.994;2023-05-10T02:02:39;14.50;99.90
49224;DHT22;35050;51.316;5.994;2023-05-10T02:05:08;14.50;99.90
49224;DHT22;35050;51.316;5.994;2023-05-10T02:07:36;14.50;99.90
49224;DHT22;35050;51.316;5.994;2023-05-10T02:10:06;14.60;99.90
49224;DHT22;35050;51.316;5.994;2023-05-10T02:12:37;14.50;99.90
49224;DHT22;35050;51.316;5.994;2023-05-10T02:15:06;14.60;99.90
49224;DHT22;35050;51.316;5.994;2023-05-10T02:17:32;14.60;99.90
49224;DHT22;35050;51.316;5.994;2023-05-10T02:20:00;14.60;99.90
49224;DHT22;35050;51.316;5.994;2023-05-10T02:22:27;14.60;99.90
49224;DHT22;35050;51.316;5.994;2023-05-10T02:24:58;14.60;99.90
49224;DHT22;35050;51.316;5.994;2023-05-10T02:27:25;14.60;99.90
49224;DHT22;35050;51.316;5.994;2023-05-10T02:29:53;14.50;99.90
49224;DHT22;35050;51.316;5.994;2023-05-10T02:32:21;14.60;99.90
49224;DHT22;35050;51.316;5.994;2023-05-10T02:34:47;14.60;99.90
49224;DHT22;35050;51.316;5.994;2023-05-10T02:37:19;14.50;99.90
49224;DHT22;35050;51.316;5.994;2023-05-10T02:39:47;14.50;99.90
49224;DHT22;35050;51.316;5.994;2023-05-10T02:42:17;14.30;99.90
49224;DHT22;35050;51.316;5.994;2023-05-10T02:44:46;14.50;99.90
49224;DHT22;35050;51.316;5.994;2023-05-10T02:47:13;14.40;99.90
49224;DHT22;35050;51.316;5.994;2023-05-10T02:49:38;14.40;99.90
49224;DHT22;35050;51.316;5.994;2023-05-10T02:52:05;14.40;99.90
49224;DHT22;35050;51.316;5.994;2023-05-10T02:54:41;14.30;99.90
49224;DHT22;35050;51.316;5.994;2023-05-10T02:57:11;14.30;99.90
49224;DHT22;35050;51.316;5.994;2023-05-10T02:59:40;14.40;99.90
49224;DHT22;35050;51.316;5.994;2023-05-10T03:02:08;14.40;99.90
49224;DHT22;35050;51.316;5.994;2023-05-10T03:04:34;14.40;99.90
49224;DHT22;35050;51.316;5.994;2023-05-10T03:07:00;14.30;99.90
49224;DHT22;35050;51.316;5.994;2023-05-10T03:09:25;14.20;99.90
49224;DHT22;35050;51.316;5.994;2023-05-10T03:17:46;14.40;99.90
49224;DHT22;35050;51.316;5.994;2023-05-10T03:20:22;14.40;99.90
49224;DHT22;35050;51.316;5.994;2023-05-10T03:22:55;14.30;99.90
49224;DHT22;35050;51.316;5.994;2023-05-10T03:25:24;14.20;99.90
49224;DHT22;35050;51.316;5.994;2023-05-10T03:27:50;14.20;99.90
49224;DHT22;35050;51.316;5.994;2023-05-10T03:30:18;14.10;99.90
49224;DHT22;35050;51.316;5.994;2023-05-10T03:32:44;14.20;99.90
49224;DHT22;35050;51.316;5.994;2023-05-10T03:35:11;14.10;99.90
49224;DHT22;35050;51.316;5.994;2023-05-10T03:37:37;14.10;99.90
49224;DHT22;35050;51.316;5.994;2023-05-10T03:40:03;14.10;99.90
49224;DHT22;35050;51.316;5.994;2023-05-10T03:42:29;14.20;99.90
49224;DHT22;35050;51.316;5.994;2023-05-10T03:44:55;14.10;99.90
49224;DHT22;35050;51.316;5.994;2023-05-10T03:47:21;14.10;99.90
49224;DHT22;35050;51.316;5.994;2023-05-10T03:49:47;14.10;99.90
49224;DHT22;35050;51.316;5.994;2023-05-10T03:52:12;14.10;99.90
49224;DHT22;35050;51.316;5.994;2023-05-10T03:54:38;14.10;99.90
49224;DHT22;35050;51.316;5.994;2023-05-10T03:57:04;14.20;99.90
49224;DHT22;35050;51.316;5.994;2023-05-10T03:59:30;14.30;99.90
49224;DHT22;35050;51.316;5.994;2023-05-10T04:01:55;14.20;99.90
49224;DHT22;35050;51.316;5.994;2023-05-10T04:04:21;14.20;99.90
49224;DHT22;35050;51.316;5.994;2023-05-10T04:06:48;14.30;99.90
49224;DHT22;35050;51.316;5.994;2023-05-10T04:09:14;14.30;99.90
49224;DHT22;35050;51.316;5.994;2023-05-10T04:11:39;14.30;99.90
49224;DHT22;35050;51.316;5.994;2023-05-10T04:14:05;14.30;99.90
49224;DHT22;35050;51.316;5.994;2023-05-10T04:16:30;14.30;99.90
49224;DHT22;35050;51.316;5.994;2023-05-10T04:18:56;14.40;99.90
49224;DHT22;35050;51.316;5.994;2023-05-10T04:21:22;14.20;99.90
49224;DHT22;35050;51.316;5.994;2023-05-10T04:23:48;14.20;99.90
49224;DHT22;35050;51.316;5.994;2023-05-10T04:26:14;14.20;99.90
49224;DHT22;35050;51.316;5.994;2023-05-10T04:28:39;14.20;99.90
49224;DHT22;35050;51.316;5.994;2023-05-10T04:31:07;14.20;99.90
49224;DHT22;35050;51.316;5.994;2023-05-10T04:33:33;14.20;99.90
49224;DHT22;35050;51.316;5.994;2023-05-10T04:35:59;14.10;99.90
49224;DHT22;35050;51.316;5.994;2023-05-10T04:38:25;14.10;99.90
49224;DHT22;35050;51.316;5.994;2023-05-10T04:40:51;14.00;99.90
49224;DHT22;35050;51.316;5.994;2023-05-10T04:43:16;14.10;99.90
49224;DHT22;35050;51.316;5.994;2023-05-10T04:45:42;14.00;99.90
49224;DHT22;35050;51.316;5.994;2023-05-10T04:48:08;14.10;99.90
49224;DHT22;35050;51.316;5.994;2023-05-10T04:50:33;14.10;99.90
49224;DHT22;35050;51.316;5.994;2023-05-10T04:52:59;14.10;99.90
49224;DHT22;35050;51.316;5.994;2023-05-10T04:55:24;14.00;99.90
49224;DHT22;35050;51.316;5.994;2023-05-10T04:57:51;14.10;99.90
49224;DHT22;35050;51.316;5.994;2023-05-10T05:00:17;14.10;99.90
49224;DHT22;35050;51.316;5.994;2023-05-10T05:02:43;14.10;99.90
49224;DHT22;35050;51.316;5.994;2023-05-10T05:05:13;14.10;99.90
49224;DHT22;35050;51.316;5.994;2023-05-10T05:07:38;14.10;99.90
49224;DHT22;35050;51.316;5.994;2023-05-10T05:10:06;14.20;99.90
49224;DHT22;35050;51.316;5.994;2023-05-10T05:12:31;14.10;99.90
49224;DHT22;35050;51.316;5.994;2023-05-10T05:14:57;14.10;99.90
49224;DHT22;35050;51.316;5.994;2023-05-10T05:17:23;14.10;99.90
49224;DHT22;35050;51.316;5.994;2023-05-10T05:19:48;14.10;99.90
49224;DHT22;35050;51.316;5.994;2023-05-10T05:22:14;14.20;99.90
49224;DHT22;35050;51.316;5.994;2023-05-10T05:24:39;14.10;99.90
49224;DHT22;35050;51.316;5.994;2023-05-10T05:27:05;14.20;99.90
49224;DHT22;35050;51.316;5.994;2023-05-10T05:29:31;14.20;99.90
49224;DHT22;35050;51.316;5.994;2023-05-10T05:31:57;14.30;99.90
49224;DHT22;35050;51.316;5.994;2023-05-10T05:34:23;14.30;99.90
49224;DHT22;35050;51.316;5.994;2023-05-10T05:36:49;14.30;99.90
49224;DHT22;35050;51.316;5.994;2023-05-10T05:39:15;14.20;99.90
49224;DHT22;35050;51.316;5.994;2023-05-10T05:41:41;14.30;99.90
49224;DHT22;35050;51.316;5.994;2023-05-10T05:44:06;14.30;99.90
49224;DHT22;35050;51.316;5.994;2023-05-10T05:46:32;14.40;99.90
49224;DHT22;35050;51.316;5.994;2023-05-10T05:48:57;14.20;99.90
49224;DHT22;35050;51.316;5.994;2023-05-10T05:51:23;14.40;99.90
49224;DHT22;35050;51.316;5.994;2023-05-10T05:53:49;14.30;99.90
49224;DHT22;35050;51.316;5.994;2023-05-10T05:56:14;14.40;99.90
49224;DHT22;35050;51.316;5.994;2023-05-10T05:58:40;14.40;99.90
49224;DHT22;35050;51.316;5.994;2023-05-10T06:01:05;14.40;99.90
49224;DHT22;35050;51.316;5.994;2023-05-10T06:03:31;14.30;99.90
49224;DHT22;35050;51.316;5.994;2023-05-10T06:05:58;14.30;99.90
49224;DHT22;35050;51.316;5.994;2023-05-10T06:08:23;14.40;99.90
49224;DHT22;35050;51.316;5.994;2023-05-10T06:10:49;14.30;99.90
49224;DHT22;35050;51.316;5.994;2023-05-10T06:13:14;14.40;99.90
49224;DHT22;35050;51.316;5.994;2023-05-10T06:15:40;14.40;99.90
49224;DHT22;35050;51.316;5.994;2023-05-10T06:18:06;14.20;99.90
49224;DHT22;35050;51.316;5.994;2023-05-10T06:20:32;14.20;99.90
49224;DHT22;35050;51.316;5.994;2023-05-10T06:22:58;14.10;99.90
49224;DHT22;35050;51.316;5.994;2023-05-10T06:25:24;14.10;99.90
49224;DHT22;35050;51.316;5.994;2023-05-10T06:27:49;14.00;99.90
49224;DHT22;35050;51.316;5.994;2023-05-10T06:30:15;14.20;99.90
49224;DHT22;35050;51.316;5.994;2023-05-10T06:32:41;14.20;99.90
49224;DHT22;35050;51.316;5.994;2023-05-10T06:35:09;14.20;99.90
49224;DHT22;35050;51.316;5.994;2023-05-10T06:37:34;14.30;99.90
49224;DHT22;35050;51.316;5.994;2023-05-10T06:40:00;14.40;99.90
49224;DHT22;35050;51.316;5.994;2023-05-10T06:42:26;14.30;99.90
49224;DHT22;35050;51.316;5.994;2023-05-10T06:44:52;14.40;99.90
49224;DHT22;35050;51.316;5.994;2023-05-10T06:47:18;14.40;99.90
49224;DHT22;35050;51.316;5.994;2023-05-10T06:49:44;14.50;99.90
49224;DHT22;35050;51.316;5.994;2023-05-10T06:52:09;14.50;99.90
49224;DHT22;35050;51.316;5.994;2023-05-10T06:54:35;14.50;99.90
49224;DHT22;35050;51.316;5.994;2023-05-10T06:57:00;14.60;99.90
49224;DHT22;35050;51.316;5.994;2023-05-10T06:59:28;14.50;99.90
49224;DHT22;35050;51.316;5.994;2023-05-10T07:01:53;14.40;99.90
49224;DHT22;35050;51.316;5.994;2023-05-10T07:04:19;14.50;99.90
49224;DHT22;35050;51.316;5.994;2023-05-10T07:06:45;14.20;99.90
49224;DHT22;35050;51.316;5.994;2023-05-10T07:09:11;14.30;99.90
49224;DHT22;35050;51.316;5.994;2023-05-10T07:11:38;14.30;99.90
49224;DHT22;35050;51.316;5.994;2023-05-10T07:14:04;14.30;99.90
49224;DHT22;35050;51.316;5.994;2023-05-10T07:16:30;14.30;99.90
49224;DHT22;35050;51.316;5.994;2023-05-10T07:18:56;14.20;99.90
49224;DHT22;35050;51.316;5.994;2023-05-10T07:21:21;14.30;99.90
49224;DHT22;35050;51.316;5.994;2023-05-10T07:23:49;14.40;99.90
49224;DHT22;35050;51.316;5.994;2023-05-10T07:26:15;14.50;99.90
49224;DHT22;35050;51.316;5.994;2023-05-10T07:28:41;14.60;99.90
49224;DHT22;35050;51.316;5.994;2023-05-10T07:31:07;14.60;99.90
49224;DHT22;35050;51.316;5.994;2023-05-10T07:33:32;14.70;99.90
49224;DHT22;35050;51.316;5.994;2023-05-10T07:35:58;14.60;99.90
49224;DHT22;35050;51.316;5.994;2023-05-10T07:38:24;14.60;99.90
49224;DHT22;35050;51.316;5.994;2023-05-10T07:40:49;14.60;99.90
49224;DHT22;35050;51.316;5.994;2023-05-10T07:43:15;14.50;99.90
49224;DHT22;35050;51.316;5.994;2023-05-10T07:45:40;14.60;99.90
49224;DHT22;35050;51.316;5.994;2023-05-10T07:48:07;14.60;99.90
49224;DHT22;35050;51.316;5.994;2023-05-10T07:50:32;14.60;99.90
49224;DHT22;35050;51.316;5.994;2023-05-10T07:52:58;14.60;99.90
49224;DHT22;35050;51.316;5.994;2023-05-10T07:55:23;14.60;99.90
49224;DHT22;35050;51.316;5.994;2023-05-10T07:57:49;14.60;99.90
49224;DHT22;35050;51.316;5.994;2023-05-10T08:00:18;14.70;99.90
49224;DHT22;35050;51.316;5.994;2023-05-10T08:02:44;14.80;99.90
49224;DHT22;35050;51.316;5.994;2023-05-10T08:05:10;14.50;99.90
49224;DHT22;35050;51.316;5.994;2023-05-10T08:07:36;14.60;99.90
49224;DHT22;35050;51.316;5.994;2023-05-10T08:10:02;14.60;99.90
49224;DHT22;35050;51.316;5.994;2023-05-10T08:12:28;14.60;99.90
49224;DHT22;35050;51.316;5.994;2023-05-10T08:14:54;14.50;99.90
49224;DHT22;35050;51.316;5.994;2023-05-10T08:17:19;14.50;99.90
49224;DHT22;35050;51.316;5.994;2023-05-10T08:19:45;14.60;99.90
49224;DHT22;35050;51.316;5.994;2023-05-10T08:22:11;14.60;99.90
49224;DHT22;35050;51.316;5.994;2023-05-10T08:24:36;14.50;99.90
49224;DHT22;35050;51.316;5.994;2023-05-10T08:27:05;14.50;99.90
49224;DHT22;35050;51.316;5.994;2023-05-10T08:29:31;14.60;99.90
49224;DHT22;35050;51.316;5.994;2023-05-10T08:31:56;14.50;99.90
49224;DHT22;35050;51.316;5.994;2023-05-10T08:34:22;14.60;99.90
49224;DHT22;35050;51.316;5.994;2023-05-10T08:36:48;14.60;99.90
49224;DHT22;35050;51.316;5.994;2023-05-10T08:39:14;14.60;99.90
49224;DHT22;35050;51.316;5.994;2023-05-10T08:41:44;14.60;99.90
49224;DHT22;35050;51.316;5.994;2023-05-10T08:44:10;14.60;99.90
49224;DHT22;35050;51.316;5.994;2023-05-10T08:46:37;14.60;99.90
49224;DHT22;35050;51.316;5.994;2023-05-10T08:49:07;14.60;99.90
49224;DHT22;35050;51.316;5.994;2023-05-10T08:51:36;14.60;99.90
49224;DHT22;35050;51.316;5.994;2023-05-10T08:54:03;14.40;99.90
49224;DHT22;35050;51.316;5.994;2023-05-10T08:56:29;14.40;99.90
49224;DHT22;35050;51.316;5.994;2023-05-10T08:58:56;14.40;99.90
49224;DHT22;35050;51.316;5.994;2023-05-10T09:01:22;14.50;99.90
49224;DHT22;35050;51.316;5.994;2023-05-10T09:03:49;14.50;99.90
49224;DHT22;35050;51.316;5.994;2023-05-10T09:06:15;14.60;99.90
49224;DHT22;35050;51.316;5.994;2023-05-10T09:08:41;14.50;99.90
49224;DHT22;35050;51.316;5.994;2023-05-10T09:11:08;14.60;99.90
49224;DHT22;35050;51.316;5.994;2023-05-10T09:13:35;14.80;99.90
49224;DHT22;35050;51.316;5.994;2023-05-10T09:16:02;14.60;99.90
49224;DHT22;35050;51.316;5.994;2023-05-10T09:18:28;14.80;99.90
49224;DHT22;35050;51.316;5.994;2023-05-10T09:20:54;14.60;99.90
49224;DHT22;35050;51.316;5.994;2023-05-10T09:23:20;14.60;99.90
49224;DHT22;35050;51.316;5.994;2023-05-10T09:25:46;14.50;99.90
49224;DHT22;35050;51.316;5.994;2023-05-10T09:28:11;14.60;99.90
49224;DHT22;35050;51.316;5.994;2023-05-10T09:30:37;14.70;99.90
49224;DHT22;35050;51.316;5.994;2023-05-10T09:33:03;14.70;99.90
49224;DHT22;35050;51.316;5.994;2023-05-10T09:35:31;14.90;99.90
49224;DHT22;35050;51.316;5.994;2023-05-10T09:38:04;14.70;99.90
49224;DHT22;35050;51.316;5.994;2023-05-10T09:40:30;14.60;99.90
49224;DHT22;35050;51.316;5.994;2023-05-10T09:42:58;14.70;99.90
49224;DHT22;35050;51.316;5.994;2023-05-10T09:45:30;14.60;99.90
49224;DHT22;35050;51.316;5.994;2023-05-10T09:47:56;14.60;99.90
49224;DHT22;35050;51.316;5.994;2023-05-10T09:50:23;14.60;99.90
49224;DHT22;35050;51.316;5.994;2023-05-10T09:52:51;14.70;99.90
49224;DHT22;35050;51.316;5.994;2023-05-10T09:55:22;14.80;99.90
49224;DHT22;35050;51.316;5.994;2023-05-10T09:57:49;14.80;99.90
49224;DHT22;35050;51.316;5.994;2023-05-10T10:00:23;14.80;99.90
49224;DHT22;35050;51.316;5.994;2023-05-10T10:02:59;14.90;99.90
49224;DHT22;35050;51.316;5.994;2023-05-10T10:05:35;14.90;99.90
49224;DHT22;35050;51.316;5.994;2023-05-10T10:08:05;14.70;99.90
49224;DHT22;35050;51.316;5.994;2023-05-10T10:10:31;15.00;99.90
49224;DHT22;35050;51.316;5.994;2023-05-10T10:12:58;14.90;99.90
49224;DHT22;35050;51.316;5.994;2023-05-10T10:15:24;14.90;99.90
49224;DHT22;35050;51.316;5.994;2023-05-10T10:17:51;15.00;99.90
49224;DHT22;35050;51.316;5.994;2023-05-10T10:20:18;15.00;99.90
49224;DHT22;35050;51.316;5.994;2023-05-10T10:22:44;15.00;99.90
49224;DHT22;35050;51.316;5.994;2023-05-10T10:25:14;15.10;99.90
49224;DHT22;35050;51.316;5.994;2023-05-10T10:30:43;15.20;99.90
49224;DHT22;35050;51.316;5.994;2023-05-10T10:33:39;15.30;99.90
49224;DHT22;35050;51.316;5.994;2023-05-10T10:36:06;15.50;99.90
49224;DHT22;35050;51.316;5.994;2023-05-10T10:38:55;15.60;99.90
49224;DHT22;35050;51.316;5.994;2023-05-10T10:41:36;15.80;99.90
49224;DHT22;35050;51.316;5.994;2023-05-10T10:50:13;16.00;99.90
49224;DHT22;35050;51.316;5.994;2023-05-10T10:52:39;16.10;99.90
49224;DHT22;35050;51.316;5.994;2023-05-10T10:55:27;16.00;99.90
49224;DHT22;35050;51.316;5.994;2023-05-10T10:57:57;16.00;99.90
49224;DHT22;35050;51.316;5.994;2023-05-10T11:00:29;15.80;99.90
49224;DHT22;35050;51.316;5.994;2023-05-10T11:03:05;15.80;99.90
49224;DHT22;35050;51.316;5.994;2023-05-10T11:10:48;16.00;99.90
49224;DHT22;35050;51.316;5.994;2023-05-10T11:13:27;16.30;99.90
49224;DHT22;35050;51.316;5.994;2023-05-10T11:15:54;16.40;99.90
49224;DHT22;35050;51.316;5.994;2023-05-10T11:18:26;16.40;99.90
49224;DHT22;35050;51.316;5.994;2023-05-10T11:21:00;16.20;99.90
49224;DHT22;35050;51.316;5.994;2023-05-10T11:23:32;16.00;99.90
49224;DHT22;35050;51.316;5.994;2023-05-10T11:25:59;16.00;99.90
49224;DHT22;35050;51.316;5.994;2023-05-10T11:28:26;16.00;99.90
49224;DHT22;35050;51.316;5.994;2023-05-10T11:30:52;16.10;99.90
49224;DHT22;35050;51.316;5.994;2023-05-10T11:33:19;16.30;99.90
49224;DHT22;35050;51.316;5.994;2023-05-10T11:35:45;16.40;99.90
49224;DHT22;35050;51.316;5.994;2023-05-10T11:38:12;16.50;99.90
49224;DHT22;35050;51.316;5.994;2023-05-10T11:40:40;16.60;99.90
49224;DHT22;35050;51.316;5.994;2023-05-10T11:43:06;16.70;99.90
49224;DHT22;35050;51.316;5.994;2023-05-10T11:45:33;16.60;99.90
49224;DHT22;35050;51.316;5.994;2023-05-10T11:47:59;16.60;99.90
49224;DHT22;35050;51.316;5.994;2023-05-10T11:50:27;16.70;99.90
49224;DHT22;35050;51.316;5.994;2023-05-10T11:52:56;16.90;99.90
49224;DHT22;35050;51.316;5.994;2023-05-10T11:55:23;17.10;99.90
49224;DHT22;35050;51.316;5.994;2023-05-10T11:57:54;17.00;99.90
49224;DHT22;35050;51.316;5.994;2023-05-10T12:00:20;17.00;99.90
49224;DHT22;35050;51.316;5.994;2023-05-10T12:02:46;17.20;99.90
49224;DHT22;35050;51.316;5.994;2023-05-10T12:05:12;17.30;99.90
49224;DHT22;35050;51.316;5.994;2023-05-10T12:07:38;17.60;99.90
49224;DHT22;35050;51.316;5.994;2023-05-10T12:10:08;17.60;99.90
49224;DHT22;35050;51.316;5.994;2023-05-10T12:12:38;17.60;99.90
49224;DHT22;35050;51.316;5.994;2023-05-10T12:15:05;17.80;99.90
49224;DHT22;35050;51.316;5.994;2023-05-10T12:17:31;17.60;99.90
49224;DHT22;35050;51.316;5.994;2023-05-10T12:25:12;17.60;99.90
49224;DHT22;35050;51.316;5.994;2023-05-10T12:27:37;17.50;99.90
49224;DHT22;35050;51.316;5.994;2023-05-10T12:30:03;17.90;99.90
49224;DHT22;35050;51.316;5.994;2023-05-10T12:35:05;18.10;99.90
49224;DHT22;35050;51.316;5.994;2023-05-10T12:37:31;18.90;99.90
49224;DHT22;35050;51.316;5.994;2023-05-10T12:40:01;18.60;99.90
49224;DHT22;35050;51.316;5.994;2023-05-10T12:42:27;18.40;99.90
49224;DHT22;35050;51.316;5.994;2023-05-10T12:44:56;18.30;99.90
49224;DHT22;35050;51.316;5.994;2023-05-10T12:47:22;18.50;99.90
49224;DHT22;35050;51.316;5.994;2023-05-10T12:49:48;18.40;99.90
49224;DHT22;35050;51.316;5.994;2023-05-10T12:52:13;18.30;99.90
49224;DHT22;35050;51.316;5.994;2023-05-10T12:54:39;18.30;99.90
49224;DHT22;35050;51.316;5.994;2023-05-10T12:57:05;18.40;99.90
49224;DHT22;35050;51.316;5.994;2023-05-10T12:59:30;18.00;99.90
49224;DHT22;35050;51.316;5.994;2023-05-10T13:01:57;17.80;99.90
49224;DHT22;35050;51.316;5.994;2023-05-10T13:04:23;18.00;99.90
49224;DHT22;35050;51.316;5.994;2023-05-10T13:06:49;18.20;99.90
49224;DHT22;35050;51.316;5.994;2023-05-10T13:09:14;19.10;99.90
49224;DHT22;35050;51.316;5.994;2023-05-10T13:11:40;19.80;99.90
49224;DHT22;35050;51.316;5.994;2023-05-10T13:14:06;19.80;99.90
49224;DHT22;35050;51.316;5.994;2023-05-10T13:16:32;19.30;99.90
49224;DHT22;35050;51.316;5.994;2023-05-10T13:18:58;18.80;99.90
49224;DHT22;35050;51.316;5.994;2023-05-10T13:21:24;18.60;99.90
49224;DHT22;35050;51.316;5.994;2023-05-10T13:23:50;18.50;99.90
49224;DHT22;35050;51.316;5.994;2023-05-10T13:26:16;18.40;99.90
49224;DHT22;35050;51.316;5.994;2023-05-10T13:28:42;19.40;99.90
49224;DHT22;35050;51.316;5.994;2023-05-10T13:31:08;19.00;99.90
49224;DHT22;35050;51.316;5.994;2023-05-10T13:33:34;18.80;99.90
49224;DHT22;35050;51.316;5.994;2023-05-10T13:35:59;18.60;99.90
49224;DHT22;35050;51.316;5.994;2023-05-10T13:38:25;18.50;99.90
49224;DHT22;35050;51.316;5.994;2023-05-10T13:40:51;18.60;99.90
49224;DHT22;35050;51.316;5.994;2023-05-10T13:43:18;18.50;99.90
49224;DHT22;35050;51.316;5.994;2023-05-10T13:45:44;18.60;99.90
49224;DHT22;35050;51.316;5.994;2023-05-10T13:48:10;18.60;99.90
49224;DHT22;35050;51.316;5.994;2023-05-10T13:50:35;18.60;99.90
49224;DHT22;35050;51.316;5.994;2023-05-10T13:53:01;18.30;99.90
49224;DHT22;35050;51.316;5.994;2023-05-10T13:55:27;18.30;99.90
49224;DHT22;35050;51.316;5.994;2023-05-10T13:57:52;18.30;99.90
49224;DHT22;35050;51.316;5.994;2023-05-10T14:00:18;18.40;99.90
49224;DHT22;35050;51.316;5.994;2023-05-10T14:02:45;18.30;99.90
49224;DHT22;35050;51.316;5.994;2023-05-10T14:05:11;18.20;99.90
49224;DHT22;35050;51.316;5.994;2023-05-10T14:07:38;18.10;99.90
49224;DHT22;35050;51.316;5.994;2023-05-10T14:10:26;18.10;99.90
49224;DHT22;35050;51.316;5.994;2023-05-10T14:13:10;17.90;99.90
49224;DHT22;35050;51.316;5.994;2023-05-10T14:15:35;17.90;99.90
49224;DHT22;35050;51.316;5.994;2023-05-10T14:18:01;17.50;99.90
49224;DHT22;35050;51.316;5.994;2023-05-10T14:20:27;17.50;99.90
49224;DHT22;35050;51.316;5.994;2023-05-10T14:22:52;17.60;99.90
49224;DHT22;35050;51.316;5.994;2023-05-10T14:25:18;17.40;99.90
49224;DHT22;35050;51.316;5.994;2023-05-10T14:27:44;17.10;99.90
49224;DHT22;35050;51.316;5.994;2023-05-10T14:30:10;17.00;99.90
49224;DHT22;35050;51.316;5.994;2023-05-10T14:32:35;17.00;99.90
49224;DHT22;35050;51.316;5.994;2023-05-10T14:35:02;16.60;99.90
49224;DHT22;35050;51.316;5.994;2023-05-10T14:37:28;16.60;99.90
49224;DHT22;35050;51.316;5.994;2023-05-10T14:39:53;16.60;99.90
49224;DHT22;35050;51.316;5.994;2023-05-10T14:42:19;16.30;99.90
49224;DHT22;35050;51.316;5.994;2023-05-10T14:44:45;16.50;99.90
49224;DHT22;35050;51.316;5.994;2023-05-10T14:47:10;16.50;99.90
49224;DHT22;35050;51.316;5.994;2023-05-10T14:49:36;16.60;99.90
49224;DHT22;35050;51.316;5.994;2023-05-10T14:52:02;16.70;99.90
49224;DHT22;35050;51.316;5.994;2023-05-10T14:54:28;16.90;99.90
49224;DHT22;35050;51.316;5.994;2023-05-10T14:56:54;16.60;99.90
49224;DHT22;35050;51.316;5.994;2023-05-10T14:59:20;16.60;99.90
49224;DHT22;35050;51.316;5.994;2023-05-10T15:01:46;16.60;99.90
49224;DHT22;35050;51.316;5.994;2023-05-10T15:04:11;16.70;99.90
49224;DHT22;35050;51.316;5.994;2023-05-10T15:06:38;16.50;99.90
49224;DHT22;35050;51.316;5.994;2023-05-10T15:09:04;16.50;99.90
49224;DHT22;35050;51.316;5.994;2023-05-10T15:11:30;16.50;99.90
49224;DHT22;35050;51.316;5.994;2023-05-10T15:13:55;16.40;99.90
49224;DHT22;35050;51.316;5.994;2023-05-10T15:16:21;16.30;99.90
49224;DHT22;35050;51.316;5.994;2023-05-10T15:18:47;16.20;99.90
49224;DHT22;35050;51.316;5.994;2023-05-10T15:21:13;16.20;99.90
49224;DHT22;35050;51.316;5.994;2023-05-10T15:23:39;16.00;99.90
49224;DHT22;35050;51.316;5.994;2023-05-10T15:26:04;16.10;99.90
49224;DHT22;35050;51.316;5.994;2023-05-10T15:28:30;16.10;99.90
49224;DHT22;35050;51.316;5.994;2023-05-10T15:30:56;15.90;99.90
49224;DHT22;35050;51.316;5.994;2023-05-10T15:33:22;15.90;99.90
49224;DHT22;35050;51.316;5.994;2023-05-10T15:35:47;15.90;99.90
49224;DHT22;35050;51.316;5.994;2023-05-10T15:38:14;15.70;99.90
49224;DHT22;35050;51.316;5.994;2023-05-10T15:40:40;15.60;99.90
49224;DHT22;35050;51.316;5.994;2023-05-10T15:43:05;15.60;99.90
49224;DHT22;35050;51.316;5.994;2023-05-10T15:45:31;15.60;99.90
49224;DHT22;35050;51.316;5.994;2023-05-10T15:47:57;15.60;99.90
49224;DHT22;35050;51.316;5.994;2023-05-10T15:50:24;15.40;99.90
49224;DHT22;35050;51.316;5.994;2023-05-10T15:52:50;15.40;99.90
49224;DHT22;35050;51.316;5.994;2023-05-10T15:55:16;15.50;99.90
49224;DHT22;35050;51.316;5.994;2023-05-10T15:57:43;15.50;99.90
49224;DHT22;35050;51.316;5.994;2023-05-10T16:00:09;15.40;99.90
49224;DHT22;35050;51.316;5.994;2023-05-10T16:02:35;15.30;99.90
49224;DHT22;35050;51.316;5.994;2023-05-10T16:05:00;15.40;99.90